Terminal Aerodrome Forecast
Issued by NWS Cleveland, OH

Home | Current Version | Previous Version | Graphics & Text | Print | Product List | Glossary On
Versions: 1 2 3 4 5 6 7 8 9 10 11 12 13 14 15 16 17 18 19 20 21 22 23 24 25 26 27 28 29 30 31 32 33 34
000
FTUS41 KCLE 182000 AAA
TAFCLE
TAF AMD
KCLE 182057Z 1821/1924 31014G22KT P6SM -SHRA BKN025 OVC035
      TEMPO 1821/1824 5SM -SHRA SCT025
     FM190000 31012KT P6SM VCSH BKN025 OVC035
     FM191700 26007KT P6SM SCT030=

USA.gov is the U.S. government's official web portal to all federal, state and local government web resources and services.